createdAt,value
2018-08-18T00:00:26.113Z,95.60
2018-08-18T00:02:55.390Z,95.70
2018-08-18T00:05:24.703Z,95.70
2018-08-18T00:07:54.289Z,95.60
2018-08-18T00:10:23.827Z,95.50
2018-08-18T00:12:53.228Z,95.70
2018-08-18T00:15:22.518Z,95.70
2018-08-18T00:17:52.125Z,95.50
2018-08-18T00:20:23.941Z,95.50
2018-08-18T00:22:53.878Z,95.50
2018-08-18T00:25:23.160Z,95.50
2018-08-18T00:27:52.644Z,95.40
2018-08-18T00:30:28.077Z,95.30
2018-08-18T00:32:57.074Z,95.50
2018-08-18T00:35:26.658Z,95.50
2018-08-18T00:37:55.926Z,95.10
2018-08-18T00:40:25.438Z,95.20
2018-08-18T00:42:57.437Z,95.40
2018-08-18T00:45:26.802Z,95.40
2018-08-18T00:47:55.893Z,95.40
2018-08-18T00:50:37.845Z,95.30
2018-08-18T00:53:08.925Z,95.60
2018-08-18T00:55:38.422Z,95.80
2018-08-18T00:58:20.509Z,95.50
2018-08-18T01:01:05.221Z,95.50
2018-08-18T01:03:43.539Z,95.70
2018-08-18T01:06:19.655Z,95.70
2018-08-18T01:08:51.876Z,95.90
2018-08-18T01:11:27.651Z,95.90
2018-08-18T01:13:57.722Z,95.90
2018-08-18T01:16:27.365Z,95.70
2018-08-18T01:18:56.629Z,95.80
2018-08-18T01:21:26.212Z,95.90
2018-08-18T01:23:55.343Z,95.90
2018-08-18T01:26:24.784Z,95.90
2018-08-18T01:28:59.104Z,96.00
2018-08-18T01:31:28.244Z,95.70
2018-08-18T01:33:58.707Z,96.00
2018-08-18T01:36:28.784Z,96.00
2018-08-18T01:38:57.892Z,95.70
2018-08-18T01:41:27.049Z,95.70
2018-08-18T01:44:26.912Z,96.00
2018-08-18T01:46:56.028Z,95.60
2018-08-18T01:49:29.723Z,96.20
2018-08-18T01:52:00.696Z,95.80
2018-08-18T01:54:30.075Z,95.50
2018-08-18T01:57:04.753Z,95.60
2018-08-18T01:59:34.282Z,95.50
2018-08-18T02:02:03.588Z,96.00
2018-08-18T02:04:32.720Z,95.80
2018-08-18T02:07:37.635Z,96.30
2018-08-18T02:10:06.869Z,96.10
2018-08-18T02:12:36.383Z,96.20
2018-08-18T02:15:05.494Z,96.30
2018-08-18T02:17:37.538Z,96.00
2018-08-18T02:20:08.623Z,96.30
2018-08-18T02:22:38.189Z,96.30
2018-08-18T02:25:07.548Z,96.10
2018-08-18T02:27:37.689Z,96.20
2018-08-18T02:30:23.711Z,96.20
2018-08-18T02:32:53.685Z,96.20
2018-08-18T02:35:23.911Z,96.30
2018-08-18T02:37:53.770Z,96.10
2018-08-18T02:40:22.943Z,96.00
2018-08-18T02:42:52.263Z,96.00
2018-08-18T02:45:21.509Z,96.10
2018-08-18T02:48:04.909Z,95.80
2018-08-18T02:50:35.134Z,96.00
2018-08-18T02:53:14.488Z,96.30
2018-08-18T02:55:43.917Z,96.20
2018-08-18T02:58:13.069Z,96.40
2018-08-18T03:00:42.312Z,95.90
2018-08-18T03:03:11.781Z,95.80
2018-08-18T03:05:40.903Z,95.70
2018-08-18T03:08:11.562Z,95.80
2018-08-18T03:10:40.757Z,95.60
2018-08-18T03:13:09.873Z,95.60
2018-08-18T03:15:56.412Z,95.60
2018-08-18T03:18:31.393Z,95.60
2018-08-18T03:21:01.188Z,95.50
2018-08-18T03:23:30.464Z,95.40
2018-08-18T03:25:59.716Z,95.50
2018-08-18T03:28:29.183Z,95.40
2018-08-18T03:30:58.643Z,95.50
2018-08-18T03:33:29.272Z,95.30
2018-08-18T03:35:58.471Z,95.70
2018-08-18T03:38:27.888Z,95.50
2018-08-18T03:40:57.299Z,95.40
2018-08-18T03:43:26.386Z,95.50
2018-08-18T03:45:55.454Z,95.50
2018-08-18T03:48:24.687Z,95.50
2018-08-18T03:50:53.865Z,95.90
2018-08-18T03:53:23.053Z,95.70
2018-08-18T03:55:53.563Z,95.70
2018-08-18T03:58:22.976Z,95.70
2018-08-18T04:00:52.102Z,95.50
2018-08-18T04:03:21.344Z,95.60
2018-08-18T04:05:50.776Z,95.70
2018-08-18T04:08:19.992Z,95.60
2018-08-18T04:10:49.125Z,95.80
2018-08-18T04:13:18.289Z,95.60
2018-08-18T04:15:47.423Z,95.50
2018-08-18T04:18:17.444Z,95.70
2018-08-18T04:20:47.101Z,95.70
2018-08-18T04:23:16.452Z,96.20
2018-08-18T04:25:45.562Z,95.80
2018-08-18T04:28:14.784Z,95.70
2018-08-18T04:30:44.261Z,95.50
2018-08-18T04:33:13.389Z,95.80
2018-08-18T04:35:44.037Z,95.80
2018-08-18T04:38:13.157Z,96.10
2018-08-18T04:40:42.508Z,95.80
2018-08-18T04:43:11.934Z,96.00
2018-08-18T04:45:41.290Z,95.70
2018-08-18T04:48:15.316Z,95.90
2018-08-18T04:50:44.434Z,95.90
2018-08-18T04:53:13.915Z,96.00
2018-08-18T04:55:43.317Z,96.20
2018-08-18T04:58:12.673Z,96.10
2018-08-18T05:00:41.823Z,96.10
2018-08-18T05:03:12.295Z,96.10
2018-08-18T05:05:41.797Z,96.10
2018-08-18T05:08:10.902Z,96.00
2018-08-18T05:10:40.023Z,95.80
2018-08-18T05:13:09.150Z,96.00
2018-08-18T05:15:38.314Z,95.50
2018-08-18T05:18:07.808Z,95.50
2018-08-18T05:20:39.082Z,95.70
2018-08-18T05:23:20.893Z,95.50
2018-08-18T05:25:52.797Z,95.40
2018-08-18T05:28:23.277Z,95.60
2018-08-18T05:30:54.151Z,95.90
2018-08-18T05:33:23.306Z,95.60
2018-08-18T05:35:52.506Z,95.60
2018-08-18T05:38:22.009Z,95.50
2018-08-18T05:40:51.688Z,95.40
2018-08-18T05:43:21.214Z,95.40
2018-08-18T05:45:50.354Z,95.40
2018-08-18T05:48:19.546Z,95.60
2018-08-18T05:50:50.069Z,95.70
2018-08-18T05:53:24.035Z,95.70
2018-08-18T05:55:53.224Z,95.70
2018-08-18T05:58:22.457Z,95.80
2018-08-18T06:00:56.028Z,96.00
2018-08-18T06:03:26.244Z,95.70
2018-08-18T06:05:56.457Z,95.50
2018-08-18T06:08:27.523Z,95.60
2018-08-18T06:10:57.461Z,95.60
2018-08-18T06:13:26.883Z,95.60
2018-08-18T06:16:09.854Z,95.50
2018-08-18T06:18:40.410Z,95.70
2018-08-18T06:21:12.714Z,95.60
2018-08-18T06:23:41.845Z,95.50
2018-08-18T06:26:12.847Z,95.60
2018-08-18T06:28:42.099Z,95.90
2018-08-18T06:31:12.981Z,96.00
2018-08-18T06:33:42.400Z,96.10
2018-08-18T06:36:11.666Z,95.80
2018-08-18T06:38:40.860Z,95.60
2018-08-18T06:41:11.971Z,95.80
2018-08-18T06:43:41.366Z,95.70
2018-08-18T06:46:10.542Z,95.60
2018-08-18T06:48:39.904Z,95.90
2018-08-18T06:51:09.918Z,95.50
2018-08-18T06:53:43.117Z,95.80
2018-08-18T06:56:13.015Z,95.80
2018-08-18T06:58:42.158Z,95.90
2018-08-18T07:01:12.648Z,96.10
2018-08-18T07:03:44.106Z,95.80
2018-08-18T07:06:14.257Z,95.40
2018-08-18T07:08:52.172Z,95.10
2018-08-18T07:11:21.351Z,94.40
2018-08-18T07:13:51.363Z,94.30
2018-08-18T07:16:20.597Z,93.00
2018-08-18T07:18:49.774Z,90.60
2018-08-18T07:21:18.914Z,89.80
2018-08-18T07:23:48.038Z,88.90
2018-08-18T07:26:17.410Z,87.80
2018-08-18T07:28:46.705Z,87.50
2018-08-18T07:31:15.707Z,84.90
2018-08-18T07:33:44.852Z,83.60
2018-08-18T07:36:14.802Z,81.70
2018-08-18T07:38:45.654Z,81.00
2018-08-18T07:41:14.964Z,80.30
2018-08-18T07:43:44.201Z,80.10
2018-08-18T07:46:13.616Z,78.40
2018-08-18T07:48:42.640Z,78.00
2018-08-18T07:51:12.915Z,78.30
2018-08-18T07:53:43.541Z,79.30
2018-08-18T07:56:13.238Z,76.80
2018-08-18T07:58:42.975Z,76.10
2018-08-18T08:01:12.867Z,77.20
2018-08-18T08:03:42.231Z,75.90
2018-08-18T08:06:11.422Z,73.50
2018-08-18T08:08:45.736Z,73.20
2018-08-18T08:11:15.168Z,72.60
2018-08-18T08:13:44.355Z,72.30
2018-08-18T08:16:14.021Z,70.20
2018-08-18T08:18:43.178Z,71.30
2018-08-18T08:21:12.802Z,71.10
2018-08-18T08:23:43.096Z,69.90
2018-08-18T08:26:15.603Z,67.60
2018-08-18T08:28:44.768Z,67.90
2018-08-18T08:31:14.257Z,68.80
2018-08-18T08:33:43.434Z,66.80
2018-08-18T08:36:15.711Z,66.00
2018-08-18T08:38:53.546Z,66.30
2018-08-18T08:41:26.011Z,66.90
2018-08-18T08:43:55.440Z,65.90
2018-08-18T08:46:24.720Z,66.10
2018-08-18T08:48:57.082Z,64.70
2018-08-18T08:51:27.189Z,63.10
2018-08-18T08:53:58.821Z,64.10
2018-08-18T08:56:34.865Z,64.90
2018-08-18T08:59:05.228Z,62.90
2018-08-18T09:01:35.501Z,62.80
2018-08-18T09:04:05.266Z,62.70
2018-08-18T09:06:35.924Z,61.10
2018-08-18T09:09:09.410Z,62.30
2018-08-18T09:11:38.699Z,61.50
2018-08-18T09:14:09.800Z,61.40
2018-08-18T09:16:42.477Z,61.80
2018-08-18T09:19:11.820Z,61.90
2018-08-18T09:21:50.113Z,60.50
2018-08-18T09:24:19.927Z,60.30
2018-08-18T09:26:52.413Z,59.50
2018-08-18T09:29:22.836Z,59.60
2018-08-18T09:31:52.618Z,59.20
2018-08-18T09:34:22.301Z,60.70
2018-08-18T09:36:51.593Z,60.20
2018-08-18T09:39:36.205Z,60.00
2018-08-18T09:42:07.802Z,58.70
2018-08-18T09:44:52.000Z,58.20
2018-08-18T09:47:21.582Z,58.70
2018-08-18T09:49:51.296Z,59.50
2018-08-18T09:52:20.992Z,57.50
2018-08-18T09:54:53.434Z,57.50
2018-08-18T09:57:30.442Z,57.60
2018-08-18T10:00:03.824Z,55.70
2018-08-18T10:02:33.195Z,55.60
2018-08-18T10:05:03.768Z,57.20
2018-08-18T10:07:34.772Z,55.90
2018-08-18T10:10:05.803Z,56.80
2018-08-18T10:12:35.174Z,55.90
2018-08-18T10:15:04.666Z,56.50
2018-08-18T10:17:34.455Z,56.20
2018-08-18T10:20:03.981Z,54.90
2018-08-18T10:22:34.160Z,56.10
2018-08-18T10:25:03.661Z,56.40
2018-08-18T10:27:32.904Z,55.50
2018-08-18T10:30:03.119Z,54.70
2018-08-18T10:32:32.484Z,55.00
2018-08-18T10:35:02.629Z,54.30
2018-08-18T10:37:32.623Z,54.90
2018-08-18T10:40:06.061Z,54.30
2018-08-18T10:42:35.656Z,55.10
2018-08-18T10:45:08.565Z,54.80
2018-08-18T10:47:37.814Z,54.00
2018-08-18T10:52:19.919Z,53.80
2018-08-18T10:54:49.393Z,54.10
2018-08-18T10:57:29.278Z,54.10
2018-08-18T10:59:58.779Z,53.70
2018-08-18T11:02:33.671Z,54.00
2018-08-18T11:05:03.107Z,53.50
2018-08-18T11:07:32.295Z,53.70
2018-08-18T11:10:01.492Z,53.50
2018-08-18T11:12:36.701Z,53.40
2018-08-18T11:15:09.155Z,51.00
2018-08-18T11:17:38.930Z,52.60
2018-08-18T11:20:14.804Z,51.80
2018-08-18T11:22:56.871Z,52.70
2018-08-18T11:25:28.188Z,52.60
2018-08-18T11:27:58.659Z,53.10
2018-08-18T11:30:27.968Z,52.50
2018-08-18T11:32:58.134Z,51.00
2018-08-18T11:35:28.313Z,51.30
2018-08-18T11:38:13.380Z,51.30
2018-08-18T11:40:43.380Z,51.80
2018-08-18T11:43:19.573Z,50.80
2018-08-18T11:45:50.545Z,49.80
2018-08-18T11:48:21.616Z,51.10
2018-08-18T11:50:52.450Z,51.10
2018-08-18T11:53:23.245Z,50.60
2018-08-18T11:55:54.952Z,51.90
2018-08-18T11:58:25.569Z,51.70
2018-08-18T12:00:57.899Z,50.80
2018-08-18T12:03:37.040Z,50.40
2018-08-18T12:06:06.572Z,50.20
2018-08-18T12:08:36.744Z,51.30
2018-08-18T12:11:08.397Z,52.00
2018-08-18T12:13:41.800Z,52.40
2018-08-18T12:16:14.423Z,51.90
2018-08-18T12:18:44.790Z,51.20
2018-08-18T12:21:14.733Z,51.00
2018-08-18T12:23:45.415Z,51.00
2018-08-18T12:26:21.358Z,51.70
2018-08-18T12:28:53.933Z,50.10
2018-08-18T12:31:26.608Z,50.50
2018-08-18T12:33:59.240Z,50.50
2018-08-18T12:36:29.678Z,51.00
2018-08-18T12:38:59.290Z,50.20
2018-08-18T12:41:28.536Z,48.30
2018-08-18T12:43:59.220Z,48.20
2018-08-18T12:46:37.756Z,49.40
2018-08-18T12:49:09.138Z,49.60
2018-08-18T12:51:38.481Z,48.90
2018-08-18T12:54:07.735Z,50.50
2018-08-18T12:56:40.776Z,50.00
2018-08-18T12:59:12.994Z,48.60
2018-08-18T13:01:46.068Z,48.80
2018-08-18T13:04:18.570Z,48.60
2018-08-18T13:06:49.442Z,48.60
2018-08-18T13:09:24.623Z,49.10
2018-08-18T13:11:55.467Z,48.40
2018-08-18T13:14:30.521Z,49.50
2018-08-18T13:16:59.585Z,50.20
2018-08-18T13:19:36.241Z,50.10
2018-08-18T13:22:05.469Z,49.30
2018-08-18T13:24:35.270Z,48.10
2018-08-18T13:27:05.185Z,47.20
2018-08-18T13:29:34.369Z,47.00
2018-08-18T13:32:04.504Z,47.40
2018-08-18T13:34:35.399Z,48.50
2018-08-18T13:37:06.525Z,47.00
2018-08-18T13:39:35.847Z,47.40
2018-08-18T13:42:19.401Z,47.10
2018-08-18T13:44:48.872Z,46.60
2018-08-18T13:47:18.585Z,46.60
2018-08-18T13:49:51.005Z,45.30
2018-08-18T13:52:21.345Z,45.40
2018-08-18T13:54:58.410Z,46.40
2018-08-18T13:57:33.139Z,46.20
2018-08-18T14:00:02.724Z,46.00
2018-08-18T14:02:33.455Z,48.00
2018-08-18T14:05:05.268Z,46.30
2018-08-18T14:07:47.651Z,45.20
2018-08-18T14:10:20.372Z,44.60
2018-08-18T14:12:49.627Z,44.50
2018-08-18T14:15:19.349Z,45.40
2018-08-18T14:17:52.469Z,44.10
2018-08-18T14:20:23.413Z,43.60
2018-08-18T14:22:56.814Z,45.70
2018-08-18T14:25:26.902Z,45.60
2018-08-18T14:28:02.358Z,46.10
2018-08-18T14:30:35.614Z,45.70
2018-08-18T14:33:05.034Z,45.60
2018-08-18T14:35:36.134Z,45.50
2018-08-18T14:38:05.428Z,46.20
2018-08-18T14:40:34.744Z,45.80
2018-08-18T14:43:07.813Z,46.40
2018-08-18T14:45:37.511Z,45.60
2018-08-18T14:48:07.750Z,45.20
2018-08-18T14:50:38.468Z,46.00
2018-08-18T14:53:25.908Z,46.50
2018-08-18T14:55:55.739Z,46.10
2018-08-18T14:58:31.523Z,46.50
2018-08-18T15:01:05.990Z,45.50
2018-08-18T15:03:36.440Z,45.90
2018-08-18T15:06:07.784Z,46.00
2018-08-18T15:08:37.793Z,45.60
2018-08-18T15:11:07.706Z,47.00
2018-08-18T15:13:37.262Z,45.90
2018-08-18T15:16:07.736Z,45.90
2018-08-18T15:18:43.845Z,46.60
2018-08-18T15:21:13.062Z,46.00
2018-08-18T15:23:44.463Z,45.70
2018-08-18T15:26:13.854Z,44.40
2018-08-18T15:28:44.934Z,45.10
2018-08-18T15:31:14.415Z,45.20
2018-08-18T15:33:45.348Z,46.30
2018-08-18T15:36:26.415Z,46.20
2018-08-18T15:38:55.727Z,45.50
2018-08-18T15:41:28.050Z,45.90
2018-08-18T15:43:57.367Z,45.70
2018-08-18T15:46:27.778Z,47.30
2018-08-18T15:48:57.263Z,45.60
2018-08-18T15:51:26.783Z,46.60
2018-08-18T15:54:03.320Z,45.10
2018-08-18T15:56:34.872Z,44.70
2018-08-18T15:59:04.595Z,45.70
2018-08-18T16:01:35.610Z,44.80
2018-08-18T16:04:06.034Z,44.80
2018-08-18T16:06:35.399Z,45.70
2018-08-18T16:09:06.391Z,45.90
2018-08-18T16:11:36.418Z,45.40
2018-08-18T16:14:07.513Z,45.70
2018-08-18T16:16:53.117Z,46.20
2018-08-18T16:19:22.475Z,47.50
2018-08-18T16:21:51.967Z,48.80
2018-08-18T16:24:42.007Z,49.70
2018-08-18T16:27:11.479Z,50.30
2018-08-18T16:29:41.201Z,50.60
2018-08-18T16:32:21.996Z,51.40
2018-08-18T16:35:04.162Z,51.70
2018-08-18T16:37:40.796Z,52.30
2018-08-18T16:40:14.822Z,52.90
2018-08-18T16:42:45.378Z,52.50
2018-08-18T16:45:15.099Z,52.80
2018-08-18T16:47:58.589Z,53.50
2018-08-18T16:50:30.822Z,54.20
2018-08-18T16:53:07.482Z,54.90
2018-08-18T16:55:38.002Z,54.90
2018-08-18T16:58:07.849Z,54.90
2018-08-18T17:00:58.164Z,54.80
2018-08-18T17:03:37.900Z,54.90
2018-08-18T17:06:07.119Z,56.30
2018-08-18T17:08:36.303Z,55.40
2018-08-18T17:11:05.699Z,55.60
2018-08-18T17:13:36.039Z,56.00
2018-08-18T17:16:07.283Z,55.70
2018-08-18T17:18:39.862Z,56.10
2018-08-18T17:21:10.697Z,56.90
2018-08-18T17:23:40.414Z,56.40
2018-08-18T17:26:09.878Z,56.50
2018-08-18T17:28:40.023Z,56.10
2018-08-18T17:31:09.261Z,56.50
2018-08-18T17:33:38.446Z,56.50
2018-08-18T17:36:13.149Z,56.30
2018-08-18T17:38:42.447Z,57.00
2018-08-18T17:41:11.783Z,56.70
2018-08-18T17:43:42.389Z,57.00
2018-08-18T17:46:12.338Z,57.40
2018-08-18T17:48:48.450Z,57.00
2018-08-18T17:51:17.788Z,57.00
2018-08-18T17:53:51.814Z,57.30
2018-08-18T17:56:21.017Z,57.50
2018-08-18T17:58:53.232Z,57.50
2018-08-18T18:01:25.343Z,57.70
2018-08-18T18:03:57.283Z,58.10
2018-08-18T18:06:29.904Z,58.50
2018-08-18T18:09:03.992Z,59.20
2018-08-18T18:11:38.956Z,58.80
2018-08-18T18:14:11.783Z,59.10
2018-08-18T18:16:47.996Z,59.00
2018-08-18T18:19:20.361Z,59.40
2018-08-18T18:21:52.038Z,59.50
2018-08-18T18:24:35.060Z,60.10
2018-08-18T18:27:09.044Z,60.70
2018-08-18T18:29:40.197Z,60.90
2018-08-18T18:32:11.811Z,61.30
2018-08-18T18:34:48.133Z,60.80
2018-08-18T18:37:17.602Z,61.80
2018-08-18T18:40:00.690Z,60.90
2018-08-18T18:42:31.369Z,61.60
2018-08-18T18:45:00.915Z,61.40
2018-08-18T18:47:40.057Z,62.30
2018-08-18T18:50:12.661Z,62.40
2018-08-18T18:52:43.761Z,63.10
2018-08-18T18:55:14.568Z,62.70
2018-08-18T18:57:58.972Z,63.50
2018-08-18T19:00:28.422Z,64.20
2018-08-18T19:02:58.815Z,64.80
2018-08-18T19:05:29.776Z,64.60
2018-08-18T19:10:53.623Z,65.60
2018-08-18T19:13:25.243Z,65.80
2018-08-18T19:15:57.787Z,66.10
2018-08-18T19:18:27.324Z,66.50
2018-08-18T19:20:58.793Z,66.80
2018-08-18T19:23:28.944Z,67.40
2018-08-18T19:25:58.342Z,67.30
2018-08-18T19:28:27.804Z,67.70
2018-08-18T19:30:58.071Z,67.50
2018-08-18T19:33:27.496Z,68.10
2018-08-18T19:35:58.527Z,68.70
2018-08-18T19:38:29.509Z,68.80
2018-08-18T19:41:03.654Z,69.20
2018-08-18T19:43:33.151Z,68.80
2018-08-18T19:46:02.604Z,69.20
2018-08-18T19:48:34.201Z,69.40
2018-08-18T19:51:05.518Z,69.70
2018-08-18T19:53:36.581Z,69.30
2018-08-18T19:56:10.370Z,70.00
2018-08-18T19:58:40.317Z,70.00
2018-08-18T20:01:10.999Z,70.30
2018-08-18T20:03:40.774Z,71.20
2018-08-18T20:06:16.455Z,70.90
2018-08-18T20:08:46.828Z,71.30
2018-08-18T20:11:16.594Z,71.20
2018-08-18T20:13:48.867Z,72.30
2018-08-18T20:16:18.781Z,73.20
2018-08-18T20:18:48.338Z,72.70
2018-08-18T20:21:20.859Z,73.80
2018-08-18T20:23:51.891Z,73.40
2018-08-18T20:26:21.373Z,74.00
2018-08-18T20:28:51.942Z,74.20
2018-08-18T20:31:21.568Z,74.70
2018-08-18T20:33:52.004Z,74.70
2018-08-18T20:36:22.442Z,75.70
2018-08-18T20:38:59.193Z,76.20
2018-08-18T20:41:29.795Z,77.10
2018-08-18T20:44:00.003Z,76.00
2018-08-18T20:46:30.573Z,76.90
2018-08-18T20:49:02.287Z,78.40
2018-08-18T20:51:34.738Z,78.90
2018-08-18T20:54:05.139Z,78.80
2018-08-18T20:56:38.388Z,79.30
2018-08-18T20:59:10.121Z,79.60
2018-08-18T21:01:40.498Z,78.50
2018-08-18T21:04:10.413Z,79.50
2018-08-18T21:06:42.586Z,79.70
2018-08-18T21:09:23.639Z,79.90
2018-08-18T21:11:54.338Z,80.60
2018-08-18T21:14:26.953Z,81.10
2018-08-18T21:16:56.661Z,81.10
2018-08-18T21:19:26.737Z,81.00
2018-08-18T21:21:57.378Z,82.30
2018-08-18T21:24:28.362Z,80.70
2018-08-18T21:26:58.005Z,81.10
2018-08-18T21:29:27.573Z,81.20
2018-08-18T21:31:56.916Z,81.60
2018-08-18T21:34:26.744Z,81.50
2018-08-18T21:36:57.879Z,81.80
2018-08-18T21:39:27.591Z,82.40
2018-08-18T21:41:58.341Z,83.00
2018-08-18T21:44:31.151Z,82.00
2018-08-18T21:47:01.182Z,83.50
2018-08-18T21:49:30.906Z,83.60
2018-08-18T21:52:01.301Z,84.80
2018-08-18T21:54:30.628Z,84.20
2018-08-18T21:57:00.431Z,83.40
2018-08-18T21:59:42.418Z,85.40
2018-08-18T22:02:11.636Z,85.70
2018-08-18T22:04:42.342Z,85.30
2018-08-18T22:07:11.743Z,85.70
2018-08-18T22:09:41.590Z,86.20
2018-08-18T22:12:10.943Z,85.80
2018-08-18T22:14:40.872Z,86.50
2018-08-18T22:17:12.543Z,87.10
2018-08-18T22:19:41.895Z,86.70
2018-08-18T22:22:17.897Z,87.00
2018-08-18T22:24:49.697Z,86.90
2018-08-18T22:27:23.012Z,87.40
2018-08-18T22:29:52.461Z,87.70
2018-08-18T22:32:24.011Z,87.70
2018-08-18T22:34:53.695Z,88.10
2018-08-18T22:37:26.688Z,87.70
2018-08-18T22:39:57.306Z,89.10
2018-08-18T22:42:32.047Z,89.30
2018-08-18T22:45:13.285Z,90.00
2018-08-18T22:47:44.775Z,90.00
2018-08-18T22:50:16.762Z,90.60
2018-08-18T22:55:34.693Z,90.10
2018-08-18T22:58:04.610Z,91.10
2018-08-18T23:00:37.501Z,90.40
2018-08-18T23:03:06.507Z,91.00
2018-08-18T23:05:35.676Z,90.80
2018-08-18T23:08:08.490Z,90.80
2018-08-18T23:10:38.854Z,91.00
2018-08-18T23:13:10.666Z,90.80
2018-08-18T23:15:42.538Z,91.30
2018-08-18T23:18:15.614Z,91.80
2018-08-18T23:20:44.568Z,91.70
2018-08-18T23:23:14.523Z,91.20
2018-08-18T23:25:44.384Z,91.60
2018-08-18T23:28:13.335Z,91.60
2018-08-18T23:30:43.175Z,91.50
2018-08-18T23:33:14.422Z,91.40
2018-08-18T23:35:44.461Z,91.40
2018-08-18T23:38:15.240Z,91.50
2018-08-18T23:40:44.528Z,91.40
2018-08-18T23:43:14.331Z,91.70
2018-08-18T23:45:50.409Z,91.50
2018-08-18T23:48:19.351Z,91.60
2018-08-18T23:50:48.164Z,92.00
2018-08-18T23:53:19.718Z,92.40
2018-08-18T23:55:55.043Z,92.10
2018-08-18T23:58:24.033Z,92.30
